Terminal Aerodrome Forecast
Issued by NWS

Home | Current Version | Previous Version | Text Only | Print | Product List | Glossary On
Versions: 1 2 3 4 5 6 7 8 9 10 11 12 13 14 15 16 17 18 19 20 21 22 23 24
000
FTUS42 KMLB 160524
TAFSUA
TAF
KSUA 160524Z 1606/1706 12005KT P6SM SCT025 BKN250
     FM161000 14007KT P6SM VCSH SCT030 BKN200
      TEMPO 1611/1613 5SM RA BKN025
     FM161700 13009KT P6SM VCTS SCT025CB BKN050
     FM162000 15007KT P6SM SCT030 BKN250=

USA.gov is the U.S. government's official web portal to all federal, state and local government web resources and services.